Time;durP1;ratioP1;P1;durP2;ratioP2;P2;SDS_P1;SDS_P2;PMS_P1;PMS_P2;Temp;Humidity;BMP_temperature;BMP_pressure;BME280_temperature;BME280_humidity;BME280_pressure;Samples;Min_cycle;Max_cycle;Signal;HPM_P1;HPM_P2
2023/06/15 00:01:21;;;;;;;0.00;0.00;;;;;;;;;;6131974;23;20647;-79
2023/06/15 00:04:06;;;;;;;0.00;0.00;;;;;;;;;;6132607;23;20271;-79
2023/06/15 00:06:52;;;;;;;0.03;0.03;;;;;;;;;;6131111;23;20028;-79
2023/06/15 00:09:38;;;;;;;0.00;0.00;;;;;;;;;;6130853;23;20067;-79
2023/06/15 00:12:23;;;;;;;0.00;0.00;;;;;;;;;;6133199;23;20024;-79
2023/06/15 00:15:10;;;;;;;0.00;0.00;;;;;;;;;;6131027;23;20018;-79
2023/06/15 00:17:55;;;;;;;0.00;0.00;;;;;;;;;;6131833;23;20014;-78
2023/06/15 00:20:41;;;;;;;0.10;0.10;;;;;;;;;;6131015;23;20018;-79
2023/06/15 00:23:29;;;;;;;0.10;0.10;;;;;;;;;;6131624;23;20026;-79
2023/06/15 00:26:15;;;;;;;0.00;0.00;;;;;;;;;;6131439;23;20368;-78
2023/06/15 00:29:02;;;;;;;0.10;0.10;;;;;;;;;;6134288;23;20493;-78
2023/06/15 00:31:48;;;;;;;0.10;0.10;;;;;;;;;;6132971;23;20100;-79
2023/06/15 00:34:34;;;;;;;0.00;0.00;;;;;;;;;;6134411;23;20080;-78
2023/06/15 00:37:20;;;;;;;0.08;0.08;;;;;;;;;;6134564;23;20632;-79
2023/06/15 00:40:07;;;;;;;0.00;0.00;;;;;;;;;;6134836;23;20064;-79
2023/06/15 00:42:53;;;;;;;0.10;0.10;;;;;;;;;;6135157;23;20057;-78
2023/06/15 00:45:38;;;;;;;0.00;0.00;;;;;;;;;;6134776;23;20018;-78
2023/06/15 00:48:24;;;;;;;0.10;0.10;;;;;;;;;;6134901;23;20471;-79
2023/06/15 00:51:10;;;;;;;0.00;0.00;;;;;;;;;;6135213;23;20451;-79
2023/06/15 00:53:57;;;;;;;0.10;0.10;;;;;;;;;;6134031;23;20132;-79
2023/06/15 00:56:43;;;;;;;0.00;0.00;;;;;;;;;;6132772;23;20387;-79
2023/06/15 00:59:29;;;;;;;0.10;0.10;;;;;;;;;;6135695;23;20014;-78
2023/06/15 01:02:14;;;;;;;0.10;0.10;;;;;;;;;;6133530;23;20567;-79
2023/06/15 01:05:01;;;;;;;0.00;0.00;;;;;;;;;;6131415;23;20520;-79
2023/06/15 01:07:48;;;;;;;0.00;0.00;;;;;;;;;;6132994;23;20461;-78
2023/06/15 01:10:34;;;;;;;0.10;0.10;;;;;;;;;;6134112;23;20063;-78
2023/06/15 01:13:20;;;;;;;0.00;0.00;;;;;;;;;;6133671;23;20021;-79
2023/06/15 01:16:07;;;;;;;0.10;0.10;;;;;;;;;;6133798;23;20017;-78
2023/06/15 01:18:57;;;;;;;0.00;0.00;;;;;;;;;;6133579;23;20014;-78
2023/06/15 01:21:42;;;;;;;0.10;0.10;;;;;;;;;;6132541;23;20021;-79
2023/06/15 01:24:35;;;;;;;0.10;0.10;;;;;;;;;;6135648;23;20768;-78
2023/06/15 01:27:21;;;;;;;0.00;0.00;;;;;;;;;;6134369;23;20021;-79
2023/06/15 01:30:07;;;;;;;0.03;0.03;;;;;;;;;;6132591;23;20017;-79
2023/06/15 01:32:53;;;;;;;0.00;0.00;;;;;;;;;;6112875;23;20454;-79
2023/06/15 01:35:39;;;;;;;0.00;0.00;;;;;;;;;;6130595;23;20462;-79
2023/06/15 01:38:30;;;;;;;0.10;0.10;;;;;;;;;;6133783;23;20473;-78
2023/06/15 01:41:16;;;;;;;0.00;0.00;;;;;;;;;;6134660;23;20049;-79
2023/06/15 01:44:03;;;;;;;0.00;0.00;;;;;;;;;;6133190;23;20108;-79
2023/06/15 01:46:49;;;;;;;0.05;0.05;;;;;;;;;;6133341;23;20010;-78
2023/06/15 01:49:37;;;;;;;0.00;0.00;;;;;;;;;;6135004;23;20365;-78
2023/06/15 01:52:25;;;;;;;0.00;0.00;;;;;;;;;;6134641;23;20092;-78
2023/06/15 01:55:11;;;;;;;0.00;0.00;;;;;;;;;;6132640;23;20013;-79
2023/06/15 01:57:57;;;;;;;0.00;0.00;;;;;;;;;;6133056;23;20021;-78
2023/06/15 02:00:44;;;;;;;0.00;0.00;;;;;;;;;;6130360;23;20060;-79
2023/06/15 02:03:32;;;;;;;0.10;0.10;;;;;;;;;;6111919;23;20298;-79
2023/06/15 02:06:17;;;;;;;0.10;0.10;;;;;;;;;;6134487;23;20647;-79
2023/06/15 02:09:03;;;;;;;0.00;0.00;;;;;;;;;;6133860;23;20045;-79
2023/06/15 02:11:49;;;;;;;0.10;0.10;;;;;;;;;;6133365;23;20036;-79
2023/06/15 02:14:36;;;;;;;0.10;0.10;;;;;;;;;;6132752;23;20454;-78
2023/06/15 02:17:24;;;;;;;0.10;0.10;;;;;;;;;;6132826;23;20013;-78
2023/06/15 02:20:11;;;;;;;0.10;0.10;;;;;;;;;;6132379;23;20443;-78
2023/06/15 02:22:57;;;;;;;0.00;0.00;;;;;;;;;;6132128;23;20793;-78
2023/06/15 02:25:43;;;;;;;0.00;0.00;;;;;;;;;;6131016;23;20136;-79
2023/06/15 02:28:29;;;;;;;0.00;0.00;;;;;;;;;;6133810;23;20191;-78
2023/06/15 02:31:15;;;;;;;0.03;0.03;;;;;;;;;;6132124;23;20243;-78
2023/06/15 02:34:01;;;;;;;0.03;0.03;;;;;;;;;;6131749;23;20179;-78
2023/06/15 02:36:48;;;;;;;0.10;0.10;;;;;;;;;;6132444;23;20517;-78
2023/06/15 02:39:34;;;;;;;0.10;0.10;;;;;;;;;;6130483;23;20391;-79
2023/06/15 02:42:20;;;;;;;0.10;0.10;;;;;;;;;;6132134;23;20021;-78
2023/06/15 02:45:10;;;;;;;0.10;0.10;;;;;;;;;;6133041;23;20045;-78
2023/06/15 02:47:56;;;;;;;0.00;0.00;;;;;;;;;;6131832;23;20013;-78
2023/06/15 02:50:42;;;;;;;0.10;0.10;;;;;;;;;;6130588;23;20751;-78
2023/06/15 02:53:37;;;;;;;0.10;0.10;;;;;;;;;;6131166;23;20217;-79
2023/06/15 02:56:23;;;;;;;0.10;0.10;;;;;;;;;;6131475;23;20021;-78
2023/06/15 02:59:09;;;;;;;0.00;0.00;;;;;;;;;;6132318;23;20016;-79
2023/06/15 03:02:15;;;;;;;0.05;0.05;;;;;;;;;;6131653;23;20096;-78
2023/06/15 03:05:03;;;;;;;0.10;0.10;;;;;;;;;;6130552;23;20072;-79
2023/06/15 03:08:00;;;;;;;0.10;0.10;;;;;;;;;;6131395;23;20020;-79
2023/06/15 03:11:03;;;;;;;0.00;0.00;;;;;;;;;;6113370;23;20018;-78
2023/06/15 03:13:48;;;;;;;0.00;0.00;;;;;;;;;;6131739;23;20017;-79
2023/06/15 03:16:39;;;;;;;0.10;0.10;;;;;;;;;;6131142;23;20092;-78
2023/06/15 03:19:25;;;;;;;0.10;0.10;;;;;;;;;;6132599;23;20020;-79
2023/06/15 03:22:25;;;;;;;0.10;0.10;;;;;;;;;;6133098;23;20017;-79
2023/06/15 03:25:11;;;;;;;0.10;0.10;;;;;;;;;;6132919;23;20013;-78
2023/06/15 03:28:01;;;;;;;0.10;0.10;;;;;;;;;;6130957;23;20045;-78
2023/06/15 03:30:56;;;;;;;0.10;0.10;;;;;;;;;;6130204;23;20029;-78
2023/06/15 03:33:44;;;;;;;0.10;0.10;;;;;;;;;;6131935;23;20021;-78
2023/06/15 03:36:29;;;;;;;0.10;0.10;;;;;;;;;;6130635;23;20479;-79
2023/06/15 03:39:16;;;;;;;0.10;0.10;;;;;;;;;;6112388;23;20210;-79
2023/06/15 03:42:02;;;;;;;0.00;0.00;;;;;;;;;;6131053;23;20468;-79
2023/06/15 03:44:49;;;;;;;0.15;0.15;;;;;;;;;;6128724;23;20471;-79
2023/06/15 03:47:36;;;;;;;0.10;0.10;;;;;;;;;;6132093;23;20619;-79
2023/06/15 03:50:22;;;;;;;0.00;0.00;;;;;;;;;;6132915;23;20120;-78
2023/06/15 03:53:08;;;;;;;0.10;0.10;;;;;;;;;;6110680;23;20420;-78
2023/06/15 03:55:54;;;;;;;0.00;0.00;;;;;;;;;;6130887;23;20025;-78
2023/06/15 03:59:07;;;;;;;0.00;0.00;;;;;;;;;;6132262;23;20064;-79
2023/06/15 04:01:53;;;;;;;0.10;0.10;;;;;;;;;;6129207;23;20017;-78
2023/06/15 04:04:40;;;;;;;0.17;0.17;;;;;;;;;;6132736;23;20013;-79
2023/06/15 04:07:28;;;;;;;0.10;0.10;;;;;;;;;;6134947;23;20314;-78
2023/06/15 04:10:13;;;;;;;0.10;0.10;;;;;;;;;;6131846;23;20316;-78
2023/06/15 04:12:59;;;;;;;0.10;0.10;;;;;;;;;;6112682;23;20120;-78
2023/06/15 04:15:45;;;;;;;0.10;0.10;;;;;;;;;;6131426;23;20364;-78
2023/06/15 04:18:33;;;;;;;0.00;0.00;;;;;;;;;;6134960;23;20199;-78
2023/06/15 04:21:19;;;;;;;0.10;0.10;;;;;;;;;;6133795;23;20009;-78
2023/06/15 04:24:05;;;;;;;0.10;0.10;;;;;;;;;;6131935;23;20022;-78
2023/06/15 04:26:53;;;;;;;0.08;0.08;;;;;;;;;;6113227;23;20026;-77
2023/06/15 04:29:45;;;;;;;0.05;0.05;;;;;;;;;;6132739;23;20009;-78
2023/06/15 04:32:32;;;;;;;0.10;0.10;;;;;;;;;;6131672;23;20049;-78
2023/06/15 04:35:19;;;;;;;0.00;0.00;;;;;;;;;;6135581;23;20009;-78
2023/06/15 04:38:05;;;;;;;0.10;0.10;;;;;;;;;;6133077;23;20017;-77
2023/06/15 04:40:52;;;;;;;0.10;0.10;;;;;;;;;;6132621;23;20017;-78
2023/06/15 04:43:38;;;;;;;0.10;0.10;;;;;;;;;;6132022;23;20549;-78
2023/06/15 04:46:24;;;;;;;0.10;0.10;;;;;;;;;;6134081;23;20021;-78
2023/06/15 04:49:12;;;;;;;0.10;0.10;;;;;;;;;;6133235;23;20025;-77
2023/06/15 04:51:58;;;;;;;0.10;0.10;;;;;;;;;;6131451;23;20021;-78
2023/06/15 04:54:44;;;;;;;0.00;0.00;;;;;;;;;;6131863;23;20018;-78
2023/06/15 04:57:29;;;;;;;0.10;0.10;;;;;;;;;;6136849;23;20013;-77
2023/06/15 05:00:16;;;;;;;0.10;0.10;;;;;;;;;;6132078;23;20017;-77
2023/06/15 05:03:10;;;;;;;0.10;0.10;;;;;;;;;;6133106;23;20064;-77
2023/06/15 05:05:56;;;;;;;0.10;0.10;;;;;;;;;;6133205;23;20017;-78
2023/06/15 05:08:42;;;;;;;0.10;0.10;;;;;;;;;;6113672;23;20096;-78
2023/06/15 05:11:28;;;;;;;0.10;0.10;;;;;;;;;;6132508;23;20132;-76
2023/06/15 05:14:14;;;;;;;0.10;0.10;;;;;;;;;;6132897;23;20021;-77
2023/06/15 05:17:03;;;;;;;0.10;0.10;;;;;;;;;;6135554;23;20419;-78
2023/06/15 05:19:49;;;;;;;0.00;0.00;;;;;;;;;;6133285;23;20021;-78
2023/06/15 05:22:35;;;;;;;0.10;0.10;;;;;;;;;;6135430;23;20026;-79
2023/06/15 05:25:21;;;;;;;0.10;0.10;;;;;;;;;;6134222;23;20619;-77
2023/06/15 05:28:07;;;;;;;0.10;0.10;;;;;;;;;;6133625;23;20095;-78
2023/06/15 05:30:55;;;;;;;0.08;0.08;;;;;;;;;;6132465;23;20740;-78
2023/06/15 05:33:42;;;;;;;0.10;0.10;;;;;;;;;;6133588;23;20660;-79
2023/06/15 05:36:30;;;;;;;0.00;0.00;;;;;;;;;;6133880;23;20529;-79
2023/06/15 05:39:16;;;;;;;0.10;0.10;;;;;;;;;;6135454;23;20117;-78
2023/06/15 05:42:02;;;;;;;0.10;0.10;;;;;;;;;;6134728;23;20459;-79
2023/06/15 05:44:48;;;;;;;0.10;0.10;;;;;;;;;;6133236;23;20521;-79
2023/06/15 05:47:35;;;;;;;0.10;0.10;;;;;;;;;;6133884;23;20451;-79
2023/06/15 05:50:22;;;;;;;0.10;0.10;;;;;;;;;;6135006;23;20798;-79
2023/06/15 05:53:08;;;;;;;0.10;0.10;;;;;;;;;;6135408;23;20434;-79
2023/06/15 05:55:55;;;;;;;0.10;0.10;;;;;;;;;;6134246;23;20014;-79
2023/06/15 05:58:40;;;;;;;0.10;0.10;;;;;;;;;;6135278;23;20014;-79
2023/06/15 06:01:27;;;;;;;0.10;0.10;;;;;;;;;;6133469;23;20048;-79
2023/06/15 06:04:12;;;;;;;0.10;0.10;;;;;;;;;;6133748;23;20017;-79
2023/06/15 06:06:59;;;;;;;0.00;0.00;;;;;;;;;;6135512;23;20013;-79
2023/06/15 06:09:46;;;;;;;0.10;0.10;;;;;;;;;;6135563;23;20014;-79
2023/06/15 06:12:34;;;;;;;0.10;0.10;;;;;;;;;;6133890;23;20448;-79
2023/06/15 06:15:19;;;;;;;0.10;0.10;;;;;;;;;;6134087;23;20055;-78
2023/06/15 06:18:06;;;;;;;0.08;0.08;;;;;;;;;;6130817;23;20048;-79
2023/06/15 06:20:51;;;;;;;0.10;0.10;;;;;;;;;;6136002;23;20013;-79
2023/06/15 06:23:39;;;;;;;0.10;0.10;;;;;;;;;;6131953;23;20037;-79
2023/06/15 06:26:25;;;;;;;0.10;0.10;;;;;;;;;;6112215;23;20061;-79
2023/06/15 06:29:11;;;;;;;0.10;0.10;;;;;;;;;;6132929;23;20014;-79
2023/06/15 06:31:57;;;;;;;0.00;0.00;;;;;;;;;;6131523;23;20022;-79
2023/06/15 06:34:43;;;;;;;0.10;0.10;;;;;;;;;;6132043;23;20017;-79
2023/06/15 06:37:29;;;;;;;0.10;0.10;;;;;;;;;;6133237;23;20045;-79
2023/06/15 06:40:15;;;;;;;0.10;0.10;;;;;;;;;;6132760;23;20014;-79
2023/06/15 06:43:00;;;;;;;0.10;0.10;;;;;;;;;;6131350;23;20370;-78
2023/06/15 06:45:46;;;;;;;0.00;0.00;;;;;;;;;;6133261;23;20018;-79
2023/06/15 06:48:32;;;;;;;0.10;0.10;;;;;;;;;;6132648;23;20052;-79
2023/06/15 06:51:17;;;;;;;0.10;0.10;;;;;;;;;;6133066;23;20049;-79
2023/06/15 06:54:03;;;;;;;0.10;0.10;;;;;;;;;;6133668;23;20060;-78
2023/06/15 07:00:37;;;;;;;0.10;0.10;;;;;;;;;;6132194;23;20031;-79
2023/06/15 07:03:23;;;;;;;0.10;0.10;;;;;;;;;;6132383;23;20020;-78
2023/06/15 07:06:09;;;;;;;0.10;0.10;;;;;;;;;;6132329;23;20407;-78
2023/06/15 07:08:55;;;;;;;0.10;0.10;;;;;;;;;;6133386;23;20035;-79
2023/06/15 07:11:41;;;;;;;0.10;0.10;;;;;;;;;;6134357;23;20018;-79
2023/06/15 07:14:26;;;;;;;0.10;0.10;;;;;;;;;;6133098;23;20479;-79
2023/06/15 07:17:12;;;;;;;0.10;0.10;;;;;;;;;;6133969;23;20286;-79
2023/06/15 07:19:58;;;;;;;0.00;0.00;;;;;;;;;;6134056;23;20017;-79
2023/06/15 07:22:43;;;;;;;0.10;0.10;;;;;;;;;;6133913;23;20120;-79
2023/06/15 07:25:29;;;;;;;0.10;0.10;;;;;;;;;;6134983;23;20056;-79
2023/06/15 07:28:15;;;;;;;0.10;0.10;;;;;;;;;;6134910;23;20511;-79
2023/06/15 07:31:01;;;;;;;0.10;0.10;;;;;;;;;;6132613;23;20459;-78
2023/06/15 07:33:46;;;;;;;0.10;0.10;;;;;;;;;;6133650;23;20025;-79
2023/06/15 07:36:32;;;;;;;0.10;0.10;;;;;;;;;;6135730;23;20077;-78
2023/06/15 07:39:18;;;;;;;0.10;0.10;;;;;;;;;;6135304;23;20047;-78
2023/06/15 07:42:03;;;;;;;0.10;0.10;;;;;;;;;;6133678;23;20148;-79
2023/06/15 07:44:49;;;;;;;0.10;0.10;;;;;;;;;;6134640;23;20018;-79
2023/06/15 07:47:35;;;;;;;0.00;0.00;;;;;;;;;;6114556;23;20028;-79
2023/06/15 07:50:20;;;;;;;0.08;0.08;;;;;;;;;;6135541;23;20068;-78
2023/06/15 07:53:06;;;;;;;0.10;0.10;;;;;;;;;;6135204;23;20050;-79
2023/06/15 07:55:52;;;;;;;0.10;0.10;;;;;;;;;;6133243;23;20117;-79
2023/06/15 08:02:27;;;;;;;0.00;0.00;;;;;;;;;;6135071;23;20032;-79
2023/06/15 08:05:12;;;;;;;0.10;0.10;;;;;;;;;;6134319;23;20051;-79
2023/06/15 08:07:58;;;;;;;0.10;0.10;;;;;;;;;;6134178;23;20017;-78
2023/06/15 08:10:44;;;;;;;0.08;0.08;;;;;;;;;;6135464;23;20018;-79
2023/06/15 08:13:30;;;;;;;0.10;0.10;;;;;;;;;;6133591;23;20339;-79
2023/06/15 08:16:16;;;;;;;0.10;0.10;;;;;;;;;;6130329;23;20104;-79
2023/06/15 08:19:02;;;;;;;0.10;0.10;;;;;;;;;;6134396;23;20511;-79
2023/06/15 08:21:47;;;;;;;0.38;0.38;;;;;;;;;;6133067;23;20390;-78
2023/06/15 08:24:33;;;;;;;0.10;0.10;;;;;;;;;;6134879;23;20326;-78
2023/06/15 08:27:19;;;;;;;0.10;0.10;;;;;;;;;;6134079;23;20647;-78
2023/06/15 08:30:05;;;;;;;0.00;0.00;;;;;;;;;;6133685;23;20022;-78
2023/06/15 08:32:51;;;;;;;0.10;0.10;;;;;;;;;;6104788;23;20025;-78
2023/06/15 08:35:36;;;;;;;0.00;0.00;;;;;;;;;;6105625;23;20018;-78
2023/06/15 08:38:22;;;;;;;0.00;0.00;;;;;;;;;;6103780;23;20093;-78
2023/06/15 08:41:08;;;;;;;0.05;0.05;;;;;;;;;;6104068;23;20511;-78
2023/06/15 08:43:53;;;;;;;0.10;0.10;;;;;;;;;;6105742;23;20021;-78
2023/06/15 08:46:42;;;;;;;0.10;0.10;;;;;;;;;;6106114;23;20010;-79
2023/06/15 08:49:30;;;;;;;0.10;0.10;;;;;;;;;;6106551;23;20519;-79
2023/06/15 08:52:17;;;;;;;0.10;0.10;;;;;;;;;;6105408;23;20100;-78
2023/06/15 08:55:03;;;;;;;0.10;0.10;;;;;;;;;;6107537;23;20400;-78
2023/06/15 08:57:48;;;;;;;0.10;0.10;;;;;;;;;;6107960;23;20333;-79
2023/06/15 09:00:35;;;;;;;0.10;0.10;;;;;;;;;;6110904;23;20104;-79
2023/06/15 09:03:21;;;;;;;0.00;0.00;;;;;;;;;;6133492;23;20021;-78
2023/06/15 09:06:08;;;;;;;0.00;0.00;;;;;;;;;;6135046;23;20045;-78
2023/06/15 09:08:53;;;;;;;0.10;0.10;;;;;;;;;;6135440;23;20029;-79
2023/06/15 09:11:43;;;;;;;0.10;0.10;;;;;;;;;;6134984;23;20408;-79
2023/06/15 09:14:39;;;;;;;0.10;0.10;;;;;;;;;;6135643;23;20026;-78
2023/06/15 09:17:28;;;;;;;0.10;0.10;;;;;;;;;;6136946;23;20016;-79
2023/06/15 09:20:14;;;;;;;0.10;0.10;;;;;;;;;;6136490;23;20490;-79
2023/06/15 09:23:02;;;;;;;0.08;0.08;;;;;;;;;;6134703;23;20526;-79
2023/06/15 09:25:54;;;;;;;0.10;0.10;;;;;;;;;;6135051;23;20022;-79
2023/06/15 09:28:44;;;;;;;0.10;0.10;;;;;;;;;;6136891;23;20014;-79
2023/06/15 09:31:31;;;;;;;0.00;0.00;;;;;;;;;;6135340;23;20021;-80
2023/06/15 09:34:16;;;;;;;0.10;0.10;;;;;;;;;;6136140;23;20032;-80
2023/06/15 09:37:02;;;;;;;0.00;0.00;;;;;;;;;;6133684;23;20116;-79
2023/06/15 09:39:48;;;;;;;0.00;0.00;;;;;;;;;;6135530;23;20021;-80
2023/06/15 09:42:36;;;;;;;0.10;0.10;;;;;;;;;;6136228;23;20386;-80
2023/06/15 09:45:22;;;;;;;0.03;0.03;;;;;;;;;;6136534;23;20096;-79
2023/06/15 09:48:11;;;;;;;0.05;0.05;;;;;;;;;;6136657;23;20017;-79
2023/06/15 09:51:00;;;;;;;0.00;0.00;;;;;;;;;;6136080;23;20474;-80
2023/06/15 09:53:46;;;;;;;0.00;0.00;;;;;;;;;;6137714;23;20064;-79
2023/06/15 09:56:35;;;;;;;0.00;0.00;;;;;;;;;;6136221;23;20443;-80
2023/06/15 09:59:36;;;;;;;0.00;0.00;;;;;;;;;;6130760;23;20095;-80
2023/06/15 10:02:22;;;;;;;0.00;0.00;;;;;;;;;;6136082;23;20084;-78
2023/06/15 10:05:13;;;;;;;0.00;0.00;;;;;;;;;;6136063;23;20103;-79
2023/06/15 10:08:02;;;;;;;0.10;0.10;;;;;;;;;;6134989;23;20037;-79
2023/06/15 10:10:48;;;;;;;0.00;0.00;;;;;;;;;;6115730;23;20343;-79
2023/06/15 10:13:41;;;;;;;0.10;0.10;;;;;;;;;;6136789;23;20742;-79
2023/06/15 10:16:28;;;;;;;0.10;0.00;;;;;;;;;;6136195;23;20092;-79
2023/06/15 10:19:15;;;;;;;0.10;0.10;;;;;;;;;;6136566;23;20640;-80
2023/06/15 10:22:02;;;;;;;0.00;0.00;;;;;;;;;;6130892;23;20022;-80
2023/06/15 10:24:49;;;;;;;0.00;0.00;;;;;;;;;;6135723;23;20033;-79
2023/06/15 10:27:35;;;;;;;0.15;0.15;;;;;;;;;;6135462;23;20024;-80
2023/06/15 10:30:39;;;;;;;0.10;0.10;;;;;;;;;;6134974;23;20005;-79
2023/06/15 10:33:47;;;;;;;0.00;0.00;;;;;;;;;;6136529;23;20017;-80
2023/06/15 10:36:50;;;;;;;0.10;0.10;;;;;;;;;;6136495;23;20024;-79
2023/06/15 10:39:36;;;;;;;0.05;0.05;;;;;;;;;;6134341;23;20017;-78
2023/06/15 10:42:22;;;;;;;0.10;0.10;;;;;;;;;;6134705;23;20807;-79
2023/06/15 10:45:20;;;;;;;0.10;0.10;;;;;;;;;;6135024;23;20513;-78
2023/06/15 10:48:05;;;;;;;0.10;0.10;;;;;;;;;;6135291;23;20518;-79
2023/06/15 10:50:52;;;;;;;0.10;0.10;;;;;;;;;;6135592;23;20020;-78
2023/06/15 10:53:39;;;;;;;0.00;0.00;;;;;;;;;;6135819;23;20306;-78
2023/06/15 11:00:23;;;;;;;0.10;0.10;;;;;;;;;;6136641;23;20379;-78
2023/06/15 11:03:29;;;;;;;0.10;0.10;;;;;;;;;;6134389;23;20403;-78
2023/06/15 11:06:17;;;;;;;0.10;0.10;;;;;;;;;;6136255;23;20018;-78
2023/06/15 11:09:04;;;;;;;0.10;0.10;;;;;;;;;;6136063;23;20014;-78
2023/06/15 11:11:50;;;;;;;0.05;0.05;;;;;;;;;;6134587;23;20124;-78
2023/06/15 11:14:36;;;;;;;0.10;0.10;;;;;;;;;;6135342;23;20025;-78
2023/06/15 11:17:21;;;;;;;0.10;0.10;;;;;;;;;;6135322;23;20036;-79
2023/06/15 11:20:27;;;;;;;0.10;0.10;;;;;;;;;;6134589;23;20017;-79
2023/06/15 11:23:19;;;;;;;0.10;0.10;;;;;;;;;;6134935;23;20026;-79
2023/06/15 11:26:04;;;;;;;0.10;0.10;;;;;;;;;;6133693;23;20013;-79
2023/06/15 11:28:50;;;;;;;0.10;0.10;;;;;;;;;;6133678;23;20334;-78
2023/06/15 11:31:36;;;;;;;0.00;0.00;;;;;;;;;;6132770;23;20020;-79
2023/06/15 11:34:22;;;;;;;0.00;0.00;;;;;;;;;;6134278;23;20029;-79
2023/06/15 11:37:12;;;;;;;0.10;0.10;;;;;;;;;;6131866;23;20016;-79
2023/06/15 11:40:00;;;;;;;0.05;0.05;;;;;;;;;;6134469;23;20019;-79
2023/06/15 11:42:46;;;;;;;0.10;0.10;;;;;;;;;;6134233;23;20022;-79
2023/06/15 11:45:34;;;;;;;0.10;0.10;;;;;;;;;;6134632;23;20028;-79
2023/06/15 11:48:20;;;;;;;0.00;0.00;;;;;;;;;;6134092;23;20354;-79
2023/06/15 11:51:09;;;;;;;0.00;0.00;;;;;;;;;;6133615;23;20356;-79
2023/06/15 11:53:54;;;;;;;0.00;0.00;;;;;;;;;;6133402;23;20044;-79
2023/06/15 11:56:44;;;;;;;0.00;0.00;;;;;;;;;;6133111;23;20064;-78
2023/06/15 11:59:33;;;;;;;0.05;0.05;;;;;;;;;;6134940;23;20153;-78
2023/06/15 12:02:18;;;;;;;0.00;0.00;;;;;;;;;;6134264;23;20550;-78
2023/06/15 12:05:04;;;;;;;0.00;0.00;;;;;;;;;;6132878;23;20428;-80
2023/06/15 12:07:50;;;;;;;0.10;0.10;;;;;;;;;;6134480;23;20100;-80
2023/06/15 12:10:40;;;;;;;0.10;0.10;;;;;;;;;;6134949;23;20422;-80
2023/06/15 12:13:25;;;;;;;0.10;0.10;;;;;;;;;;6134001;23;20079;-80
2023/06/15 12:16:11;;;;;;;0.10;0.10;;;;;;;;;;6134681;23;20402;-81
2023/06/15 12:19:01;;;;;;;0.10;0.10;;;;;;;;;;6134617;23;20052;-80
2023/06/15 12:21:47;;;;;;;0.10;0.10;;;;;;;;;;6134439;23;20169;-79
2023/06/15 12:24:37;;;;;;;0.10;0.10;;;;;;;;;;6134198;23;20118;-79
2023/06/15 12:27:24;;;;;;;0.10;0.10;;;;;;;;;;6134444;23;20128;-79
2023/06/15 12:30:10;;;;;;;0.10;0.10;;;;;;;;;;6133045;23;20010;-79
2023/06/15 12:32:56;;;;;;;0.00;0.00;;;;;;;;;;6133888;23;20043;-80
2023/06/15 12:35:42;;;;;;;0.13;0.10;;;;;;;;;;6131616;23;20155;-79
2023/06/15 12:38:29;;;;;;;0.10;0.10;;;;;;;;;;6135256;23;20029;-80
2023/06/15 12:41:15;;;;;;;0.00;0.00;;;;;;;;;;6134632;23;20679;-79
2023/06/15 12:44:01;;;;;;;0.00;0.00;;;;;;;;;;6135796;23;20104;-79
2023/06/15 12:46:46;;;;;;;0.00;0.00;;;;;;;;;;6134616;23;20044;-79
2023/06/15 12:49:32;;;;;;;0.00;0.00;;;;;;;;;;6136422;23;20013;-79
2023/06/15 12:52:18;;;;;;;0.08;0.08;;;;;;;;;;6133958;23;20100;-80
2023/06/15 12:55:04;;;;;;;0.00;0.00;;;;;;;;;;6134485;23;20750;-79
2023/06/15 12:57:50;;;;;;;0.00;0.00;;;;;;;;;;6133708;23;20028;-79
2023/06/15 13:00:35;;;;;;;0.00;0.00;;;;;;;;;;6135479;23;20064;-79
2023/06/15 13:03:21;;;;;;;0.03;0.03;;;;;;;;;;6135620;23;20410;-78
2023/06/15 13:06:07;;;;;;;0.00;0.00;;;;;;;;;;6134573;23;20774;-79
2023/06/15 13:08:53;;;;;;;0.00;0.00;;;;;;;;;;6134740;23;20017;-79
2023/06/15 13:11:39;;;;;;;0.00;0.00;;;;;;;;;;6135144;23;20108;-79
2023/06/15 13:14:24;;;;;;;0.00;0.00;;;;;;;;;;6134846;23;20128;-79
2023/06/15 13:17:10;;;;;;;0.00;0.00;;;;;;;;;;6134084;23;20025;-79
2023/06/15 13:19:56;;;;;;;0.10;0.10;;;;;;;;;;6134766;23;20009;-79
2023/06/15 13:22:43;;;;;;;0.10;0.10;;;;;;;;;;6135062;23;20017;-79
2023/06/15 13:25:29;;;;;;;0.00;0.00;;;;;;;;;;6135238;23;20343;-79
2023/06/15 13:28:15;;;;;;;0.00;0.00;;;;;;;;;;6135683;23;20402;-79
2023/06/15 13:31:01;;;;;;;0.05;0.05;;;;;;;;;;6133626;23;20161;-79
2023/06/15 13:33:46;;;;;;;0.10;0.10;;;;;;;;;;6135842;23;20056;-80
2023/06/15 13:36:32;;;;;;;0.10;0.10;;;;;;;;;;6135588;23;20110;-79
2023/06/15 13:39:18;;;;;;;0.10;0.10;;;;;;;;;;6137091;23;20022;-80
2023/06/15 13:42:07;;;;;;;0.08;0.08;;;;;;;;;;6134767;23;20021;-80
2023/06/15 13:44:53;;;;;;;0.10;0.10;;;;;;;;;;6135370;23;20466;-80
2023/06/15 13:47:40;;;;;;;0.00;0.00;;;;;;;;;;6137335;23;20018;-80
2023/06/15 13:50:27;;;;;;;0.00;0.00;;;;;;;;;;6136423;23;20606;-79
2023/06/15 13:53:12;;;;;;;0.00;0.00;;;;;;;;;;6136147;23;20021;-80
2023/06/15 13:55:58;;;;;;;0.10;0.10;;;;;;;;;;6135040;23;20029;-80
2023/06/15 13:58:44;;;;;;;0.17;0.17;;;;;;;;;;6136186;23;20099;-80
2023/06/15 14:01:30;;;;;;;0.10;0.10;;;;;;;;;;6136954;23;20021;-80
2023/06/15 14:04:16;;;;;;;0.10;0.10;;;;;;;;;;6136884;23;20021;-80
2023/06/15 14:07:02;;;;;;;0.10;0.10;;;;;;;;;;6135456;23;20052;-80
2023/06/15 14:09:47;;;;;;;0.00;0.00;;;;;;;;;;6136923;23;20109;-80
2023/06/15 14:12:33;;;;;;;0.10;0.10;;;;;;;;;;6139005;23;20424;-80
2023/06/15 14:15:19;;;;;;;0.10;0.10;;;;;;;;;;6135622;23;20461;-80
2023/06/15 14:18:04;;;;;;;0.00;0.00;;;;;;;;;;6135253;23;20021;-80
2023/06/15 14:20:50;;;;;;;0.00;0.00;;;;;;;;;;6136654;23;20009;-81
2023/06/15 14:23:36;;;;;;;0.10;0.10;;;;;;;;;;6136747;23;20479;-80
2023/06/15 14:26:22;;;;;;;0.10;0.10;;;;;;;;;;6136176;23;20100;-80
2023/06/15 14:29:12;;;;;;;0.00;0.00;;;;;;;;;;6135077;23;20101;-80
2023/06/15 14:31:58;;;;;;;0.10;0.10;;;;;;;;;;6134434;23;20022;-80
2023/06/15 14:34:43;;;;;;;0.00;0.00;;;;;;;;;;6135862;23;20432;-80
2023/06/15 14:37:29;;;;;;;0.08;0.08;;;;;;;;;;6135426;23;20110;-80
2023/06/15 14:40:15;;;;;;;0.10;0.10;;;;;;;;;;6134078;23;20455;-80
2023/06/15 14:43:01;;;;;;;0.20;0.13;;;;;;;;;;6135129;23;20817;-79
2023/06/15 14:45:46;;;;;;;0.00;0.00;;;;;;;;;;6136144;23;20546;-80
2023/06/15 14:48:32;;;;;;;0.00;0.00;;;;;;;;;;6135153;23;20017;-80
2023/06/15 14:51:18;;;;;;;0.00;0.00;;;;;;;;;;6134368;23;20079;-80
2023/06/15 14:54:04;;;;;;;0.00;0.00;;;;;;;;;;6133197;23;20424;-80
2023/06/15 14:57:02;;;;;;;0.00;0.00;;;;;;;;;;6135090;23;20009;-80
2023/06/15 14:59:48;;;;;;;0.00;0.00;;;;;;;;;;6134730;23;20026;-80
2023/06/15 15:02:34;;;;;;;0.00;0.00;;;;;;;;;;6133846;23;20450;-79
2023/06/15 15:05:20;;;;;;;0.10;0.10;;;;;;;;;;6134320;23;20048;-80
2023/06/15 15:08:07;;;;;;;0.00;0.00;;;;;;;;;;6133858;23;20045;-79
2023/06/15 15:10:53;;;;;;;0.00;0.00;;;;;;;;;;6134306;23;20507;-80
2023/06/15 15:13:39;;;;;;;0.00;0.00;;;;;;;;;;6134842;23;20435;-80
2023/06/15 15:16:25;;;;;;;0.00;0.00;;;;;;;;;;6135204;23;20010;-80
2023/06/15 15:19:11;;;;;;;0.00;0.00;;;;;;;;;;6134367;23;20009;-80
2023/06/15 15:21:56;;;;;;;0.00;0.00;;;;;;;;;;6133689;23;20140;-79
2023/06/15 15:24:42;;;;;;;0.00;0.00;;;;;;;;;;6136930;23;20029;-79
2023/06/15 15:27:28;;;;;;;0.00;0.00;;;;;;;;;;6135677;23;20548;-79
2023/06/15 15:30:14;;;;;;;0.00;0.00;;;;;;;;;;6132885;23;20018;-80
2023/06/15 15:32:59;;;;;;;0.00;0.00;;;;;;;;;;6132997;23;20021;-79
2023/06/15 15:35:45;;;;;;;0.00;0.00;;;;;;;;;;6135829;23;20024;-79
2023/06/15 15:38:31;;;;;;;0.00;0.00;;;;;;;;;;6137729;23;20045;-79
2023/06/15 15:41:16;;;;;;;0.00;0.00;;;;;;;;;;6133397;23;20064;-79
2023/06/15 15:44:02;;;;;;;0.10;0.05;;;;;;;;;;6134805;23;20013;-79
2023/06/15 15:46:48;;;;;;;0.00;0.00;;;;;;;;;;6135224;23;20017;-78
2023/06/15 15:49:33;;;;;;;0.00;0.00;;;;;;;;;;6135299;23;20016;-79
2023/06/15 15:52:19;;;;;;;0.00;0.00;;;;;;;;;;6135140;23;20045;-79
2023/06/15 15:55:05;;;;;;;0.10;0.10;;;;;;;;;;6133840;23;20013;-79
2023/06/15 15:57:51;;;;;;;0.10;0.10;;;;;;;;;;6135755;23;20342;-79
2023/06/15 16:00:37;;;;;;;0.00;0.00;;;;;;;;;;6134229;23;20018;-79
2023/06/15 16:03:22;;;;;;;0.00;0.00;;;;;;;;;;6135378;23;20038;-79
2023/06/15 16:06:08;;;;;;;0.10;0.10;;;;;;;;;;6134416;23;20357;-79
2023/06/15 16:08:54;;;;;;;0.00;0.00;;;;;;;;;;6133250;23;20018;-79
2023/06/15 16:11:40;;;;;;;0.10;0.10;;;;;;;;;;6134148;23;20017;-81
2023/06/15 16:14:26;;;;;;;0.10;0.10;;;;;;;;;;6135988;23;20035;-80
2023/06/15 16:17:12;;;;;;;0.10;0.10;;;;;;;;;;6130975;23;20606;-80
2023/06/15 16:19:58;;;;;;;0.10;0.10;;;;;;;;;;6133328;23;20040;-79
2023/06/15 16:22:43;;;;;;;0.10;0.10;;;;;;;;;;6134241;23;20020;-80
2023/06/15 16:25:29;;;;;;;0.08;0.00;;;;;;;;;;6133449;23;20020;-80
2023/06/15 16:28:15;;;;;;;0.08;0.08;;;;;;;;;;6134481;23;20017;-80
2023/06/15 16:31:00;;;;;;;0.10;0.10;;;;;;;;;;6131902;23;20566;-79
2023/06/15 16:33:46;;;;;;;0.00;0.00;;;;;;;;;;6134853;23;20351;-79
2023/06/15 16:36:32;;;;;;;0.00;0.00;;;;;;;;;;6133889;23;20041;-79
2023/06/15 16:39:36;;;;;;;0.00;0.00;;;;;;;;;;6134998;23;20367;-80
2023/06/15 16:42:23;;;;;;;0.00;0.00;;;;;;;;;;6136537;23;20482;-79
2023/06/15 16:45:09;;;;;;;0.00;0.00;;;;;;;;;;6135641;23;20045;-79
2023/06/15 16:47:55;;;;;;;0.00;0.00;;;;;;;;;;6134216;23;20061;-79
2023/06/15 16:50:41;;;;;;;0.00;0.00;;;;;;;;;;6134908;23;20362;-79
2023/06/15 16:53:26;;;;;;;0.10;0.03;;;;;;;;;;6134312;23;20101;-79